Time;durP1;ratioP1;P1;durP2;ratioP2;P2;SDS_P1;SDS_P2;PMS_P1;PMS_P2;Temp;Humidity;BMP_temperature;BMP_pressure;BME280_temperature;BME280_humidity;BME280_pressure;Samples;Min_cycle;Max_cycle;Signal;HPM_P1;HPM_P2
2023/01/23 00:00:47;;;;;;;;;;;22.10;31.70;;;;;;5008926;28;19928;-76
2023/01/23 00:03:13;;;;;;;;;;;22.10;31.60;;;;;;5026409;28;19921;-77
2023/01/23 00:05:38;;;;;;;;;;;22.10;31.60;;;;;;5015506;28;20027;-77
2023/01/23 00:08:04;;;;;;;;;;;22.20;31.60;;;;;;5013487;28;19921;-76
2023/01/23 00:10:30;;;;;;;;;;;22.00;31.60;;;;;;5024805;28;19925;-78
2023/01/23 00:12:56;;;;;;;;;;;22.00;31.70;;;;;;5009911;28;19982;-78
2023/01/23 00:15:22;;;;;;;;;;;21.90;31.80;;;;;;5016971;28;19921;-75
2023/01/23 00:17:47;;;;;;;;;;;21.90;31.90;;;;;;5014870;28;19928;-77
2023/01/23 00:20:13;;;;;;;;;;;21.90;32.00;;;;;;5026019;28;19976;-77
2023/01/23 00:22:38;;;;;;;;;;;21.90;31.90;;;;;;5015426;28;19928;-76
2023/01/23 00:25:04;;;;;;;;;;;21.90;31.90;;;;;;5010667;28;19926;-76
2023/01/23 00:27:32;;;;;;;;;;;21.90;31.90;;;;;;5014353;28;20420;-78
2023/01/23 00:29:58;;;;;;;;;;;22.00;31.90;;;;;;5011312;28;20032;-77
2023/01/23 00:32:24;;;;;;;;;;;22.00;31.90;;;;;;5030418;28;19921;-77
2023/01/23 00:34:49;;;;;;;;;;;22.00;31.80;;;;;;5009194;28;20299;-75
2023/01/23 00:37:16;;;;;;;;;;;22.00;31.70;;;;;;5013416;28;19922;-75
2023/01/23 00:39:42;;;;;;;;;;;22.00;31.80;;;;;;5028927;28;19921;-76
2023/01/23 00:42:07;;;;;;;;;;;22.10;31.70;;;;;;5011374;28;19932;-75
2023/01/23 00:44:33;;;;;;;;;;;22.10;31.70;;;;;;5009045;28;19925;-75
2023/01/23 00:46:59;;;;;;;;;;;22.10;31.70;;;;;;5012189;28;19932;-76
2023/01/23 00:49:25;;;;;;;;;;;22.20;31.70;;;;;;5015838;28;19922;-77
2023/01/23 00:51:55;;;;;;;;;;;22.10;31.70;;;;;;5026551;28;19967;-77
2023/01/23 00:54:21;;;;;;;;;;;22.10;31.70;;;;;;5009595;28;19929;-77
2023/01/23 00:56:46;;;;;;;;;;;22.10;31.70;;;;;;5010815;28;20381;-77
2023/01/23 00:59:12;;;;;;;;;;;22.10;31.70;;;;;;5007686;28;20013;-77
2023/01/23 01:01:38;;;;;;;;;;;22.10;31.70;;;;;;5012976;28;20450;-76
2023/01/23 01:04:04;;;;;;;;;;;22.20;31.80;;;;;;5029272;28;19932;-78
2023/01/23 01:06:29;;;;;;;;;;;22.20;31.80;;;;;;5014091;28;19929;-79
2023/01/23 01:08:56;;;;;;;;;;;22.10;31.70;;;;;;5012102;28;19922;-77
2023/01/23 01:11:22;;;;;;;;;;;22.10;31.80;;;;;;5009608;28;20365;-77
2023/01/23 01:13:47;;;;;;;;;;;22.20;31.80;;;;;;5014552;28;20456;-76
2023/01/23 01:16:13;;;;;;;;;;;22.10;31.70;;;;;;5005878;28;19926;-77
2023/01/23 01:18:38;;;;;;;;;;;22.20;31.80;;;;;;5011304;28;20344;-75
2023/01/23 01:21:05;;;;;;;;;;;22.20;31.70;;;;;;5005590;28;19921;-74
2023/01/23 01:23:30;;;;;;;;;;;22.20;31.70;;;;;;5011596;28;19929;-77
2023/01/23 01:25:57;;;;;;;;;;;22.20;31.80;;;;;;5007059;28;19922;-76
2023/01/23 01:28:25;;;;;;;;;;;22.10;31.90;;;;;;5024272;28;21288;-75
2023/01/23 01:30:50;;;;;;;;;;;22.10;31.70;;;;;;5011592;28;20446;-75
2023/01/23 01:33:16;;;;;;;;;;;22.20;31.70;;;;;;5010644;28;19926;-77
2023/01/23 01:35:41;;;;;;;;;;;22.10;31.90;;;;;;5014336;28;19921;-76
2023/01/23 01:38:08;;;;;;;;;;;22.10;31.80;;;;;;5010383;28;20372;-76
2023/01/23 01:40:34;;;;;;;;;;;22.10;31.90;;;;;;5007999;28;20395;-78
2023/01/23 01:43:01;;;;;;;;;;;22.10;31.90;;;;;;5013697;28;19933;-78
2023/01/23 01:45:47;;;;;;;;;;;22.00;31.90;;;;;;5012432;28;20008;-76
2023/01/23 01:48:13;;;;;;;;;;;22.00;32.00;;;;;;5009933;28;19925;-75
2023/01/23 01:50:39;;;;;;;;;;;22.00;32.00;;;;;;5009114;28;19922;-77
2023/01/23 01:53:05;;;;;;;;;;;22.00;32.00;;;;;;5011106;28;19925;-75
2023/01/23 01:55:31;;;;;;;;;;;22.10;32.00;;;;;;5009713;28;19921;-76
2023/01/23 01:57:57;;;;;;;;;;;22.10;31.90;;;;;;5014926;28;19928;-77
2023/01/23 02:00:22;;;;;;;;;;;22.10;32.00;;;;;;5013037;28;20284;-74
2023/01/23 02:02:50;;;;;;;;;;;22.10;31.90;;;;;;5014202;28;19961;-76
2023/01/23 02:05:17;;;;;;;;;;;22.10;31.90;;;;;;5024543;28;19921;-77
2023/01/23 02:07:50;;;;;;;;;;;22.20;31.90;;;;;;5011201;28;19986;-75
2023/01/23 02:10:16;;;;;;;;;;;22.20;31.90;;;;;;5012754;28;20372;-77
2023/01/23 02:12:46;;;;;;;;;;;22.30;31.90;;;;;;5008239;28;19963;-76
2023/01/23 02:15:12;;;;;;;;;;;22.20;31.80;;;;;;5012951;28;19921;-75
2023/01/23 02:17:37;;;;;;;;;;;22.30;31.90;;;;;;5009953;28;19967;-74
2023/01/23 02:20:23;;;;;;;;;;;22.30;31.90;;;;;;5014180;28;19921;-78
2023/01/23 02:28:34;;;;;;;;;;;22.30;31.90;;;;;;5112411;27;1862393;-78
2023/01/23 02:31:00;;;;;;;;;;;22.20;31.80;;;;;;5145497;27;20419;-79
2023/01/23 02:36:04;;;;;;;;;;;22.20;31.90;;;;;;5109496;27;1894439;-76
2023/01/23 02:38:34;;;;;;;;;;;22.30;32.00;;;;;;5158513;27;20486;-77
2023/01/23 02:41:04;;;;;;;;;;;22.20;31.90;;;;;;5161070;27;19919;-78
2023/01/23 02:43:34;;;;;;;;;;;22.20;32.00;;;;;;5159853;27;19965;-78
2023/01/23 02:46:01;;;;;;;;;;;22.20;32.00;;;;;;5156261;27;19962;-78
2023/01/23 02:48:27;;;;;;;;;;;22.20;31.90;;;;;;5156775;27;19918;-76
2023/01/23 02:50:56;;;;;;;;;;;22.20;32.00;;;;;;5160022;27;19919;-77
2023/01/23 02:53:21;;;;;;;;;;;22.20;32.00;;;;;;5158693;27;20365;-74
2023/01/23 02:55:47;;;;;;;;;;;22.30;32.00;;;;;;5161892;27;19923;-75
2023/01/23 03:00:58;;;;;;;;;;;22.20;32.00;;;;;;5157785;27;20333;-79
2023/01/23 03:03:24;;;;;;;;;;;22.20;32.00;;;;;;5160234;27;19919;-75
2023/01/23 03:05:50;;;;;;;;;;;22.20;32.00;;;;;;5175203;27;19964;-78
2023/01/23 03:08:15;;;;;;;;;;;22.30;32.00;;;;;;5177018;27;19930;-77
2023/01/23 03:10:41;;;;;;;;;;;22.30;32.80;;;;;;5180255;27;19919;-78
2023/01/23 03:13:09;;;;;;;;;;;22.30;32.00;;;;;;5157638;27;20373;-76
2023/01/23 03:15:37;;;;;;;;;;;22.30;32.00;;;;;;5158725;27;19922;-76
2023/01/23 03:18:03;;;;;;;;;;;22.30;32.00;;;;;;5161610;27;19962;-76
2023/01/23 03:20:28;;;;;;;;;;;22.30;31.90;;;;;;5156065;27;19923;-79
2023/01/23 03:22:54;;;;;;;;;;;22.40;31.90;;;;;;5177021;27;19919;-78
2023/01/23 03:25:20;;;;;;;;;;;22.40;31.90;;;;;;5156120;27;20026;-75
2023/01/23 03:27:45;;;;;;;;;;;22.50;31.80;;;;;;5156407;27;19919;-76
2023/01/23 03:30:12;;;;;;;;;;;22.50;31.70;;;;;;5160864;27;19925;-76
2023/01/23 03:32:38;;;;;;;;;;;22.60;32.20;;;;;;5152881;27;19923;-77
2023/01/23 03:35:04;;;;;;;;;;;22.60;31.60;;;;;;5159316;27;19930;-77
2023/01/23 03:37:30;;;;;;;;;;;22.60;31.60;;;;;;5158119;27;19919;-78
2023/01/23 03:42:41;;;;;;;;;;;22.60;31.50;;;;;;5180292;27;19922;-76
2023/01/23 03:45:07;;;;;;;;;;;22.60;31.50;;;;;;5159882;27;20360;-78
2023/01/23 03:47:33;;;;;;;;;;;22.60;31.60;;;;;;5142959;27;19964;-76
2023/01/23 03:49:58;;;;;;;;;;;22.60;31.60;;;;;;5143084;27;19919;-77
2023/01/23 03:52:24;;;;;;;;;;;22.50;31.60;;;;;;5143259;27;20369;-75
2023/01/23 03:54:50;;;;;;;;;;;22.50;31.70;;;;;;5142838;27;19923;-75
2023/01/23 03:57:15;;;;;;;;;;;22.50;31.70;;;;;;5143577;27;20341;-76
2023/01/23 03:59:41;;;;;;;;;;;22.50;31.70;;;;;;5140242;27;19920;-76
2023/01/23 04:02:06;;;;;;;;;;;22.40;31.60;;;;;;5141261;27;19923;-77
2023/01/23 04:04:33;;;;;;;;;;;22.40;31.80;;;;;;5164576;27;19919;-76
2023/01/23 04:06:59;;;;;;;;;;;22.40;31.80;;;;;;5161742;27;20051;-79
2023/01/23 04:09:26;;;;;;;;;;;22.40;31.90;;;;;;5145495;27;20404;-77
2023/01/23 04:11:53;;;;;;;;;;;22.30;31.80;;;;;;5141309;27;19923;-77
2023/01/23 04:14:18;;;;;;;;;;;22.20;31.80;;;;;;5162339;27;19923;-77
2023/01/23 04:16:44;;;;;;;;;;;22.30;31.80;;;;;;5146326;27;19938;-77
2023/01/23 04:19:09;;;;;;;;;;;22.30;31.90;;;;;;5131003;27;19924;-76
2023/01/23 04:21:35;;;;;;;;;;;22.20;31.80;;;;;;5148241;27;20022;-77
2023/01/23 04:24:00;;;;;;;;;;;22.30;31.90;;;;;;5148129;27;20526;-77
2023/01/23 04:26:26;;;;;;;;;;;22.30;31.80;;;;;;5145875;27;20014;-76
2023/01/23 04:28:51;;;;;;;;;;;22.30;31.80;;;;;;5146395;27;20010;-74
2023/01/23 04:31:17;;;;;;;;;;;22.30;31.90;;;;;;5143043;27;19929;-76
2023/01/23 04:33:45;;;;;;;;;;;22.30;31.90;;;;;;5141374;27;19929;-78
2023/01/23 04:36:11;;;;;;;;;;;22.30;31.80;;;;;;5141662;27;20429;-78
2023/01/23 04:38:37;;;;;;;;;;;22.40;31.80;;;;;;5142224;27;19919;-75
2023/01/23 04:41:02;;;;;;;;;;;22.30;31.80;;;;;;5142166;27;19948;-78
2023/01/23 04:43:28;;;;;;;;;;;22.30;31.80;;;;;;5139386;27;19926;-76
2023/01/23 04:45:54;;;;;;;;;;;22.40;31.90;;;;;;5144489;27;20389;-79
2023/01/23 04:48:20;;;;;;;;;;;22.40;32.70;;;;;;5140666;27;19926;-77
2023/01/23 04:50:46;;;;;;;;;;;22.40;31.90;;;;;;5146348;27;20318;-77
2023/01/23 04:53:12;;;;;;;;;;;22.30;31.80;;;;;;5160538;27;19919;-77
2023/01/23 04:55:38;;;;;;;;;;;22.40;31.90;;;;;;5160017;27;19934;-75
2023/01/23 04:58:03;;;;;;;;;;;22.40;31.80;;;;;;5143029;27;20013;-78
2023/01/23 05:00:29;;;;;;;;;;;22.40;31.90;;;;;;5139852;27;20338;-77
2023/01/23 05:02:55;;;;;;;;;;;22.40;31.90;;;;;;5146016;27;20051;-78
2023/01/23 05:05:21;;;;;;;;;;;22.40;31.80;;;;;;5140157;27;19919;-75
2023/01/23 05:07:47;;;;;;;;;;;22.40;31.80;;;;;;5160762;27;19967;-77
2023/01/23 05:10:13;;;;;;;;;;;22.40;32.60;;;;;;5140427;27;19923;-78
2023/01/23 05:12:38;;;;;;;;;;;22.40;31.80;;;;;;5140305;27;20017;-77
2023/01/23 05:15:05;;;;;;;;;;;22.40;31.90;;;;;;5144422;27;20056;-77
2023/01/23 05:17:30;;;;;;;;;;;22.40;31.90;;;;;;5142438;27;20377;-77
2023/01/23 05:19:56;;;;;;;;;;;22.40;31.90;;;;;;5144475;27;19952;-78
2023/01/23 05:22:25;;;;;;;;;;;22.40;31.90;;;;;;5157336;27;19926;-78
2023/01/23 05:24:51;;;;;;;;;;;22.40;31.80;;;;;;5143167;27;19919;-76
2023/01/23 05:27:16;;;;;;;;;;;22.40;31.80;;;;;;5140095;27;19919;-78
2023/01/23 05:29:42;;;;;;;;;;;22.40;31.90;;;;;;5141081;27;20270;-78
2023/01/23 05:32:07;;;;;;;;;;;22.40;31.90;;;;;;5139772;27;20009;-77
2023/01/23 05:34:33;;;;;;;;;;;22.40;31.90;;;;;;5139699;27;19923;-76
2023/01/23 05:36:58;;;;;;;;;;;22.40;31.80;;;;;;5126776;27;19923;-76
2023/01/23 05:39:24;;;;;;;;;;;22.40;31.80;;;;;;5160287;27;20021;-76
2023/01/23 05:41:49;;;;;;;;;;;22.40;31.80;;;;;;5140125;27;19918;-76
2023/01/23 05:44:15;;;;;;;;;;;22.40;31.80;;;;;;5159622;27;19962;-76
2023/01/23 05:46:41;;;;;;;;;;;22.40;31.80;;;;;;5143262;27;20367;-78
2023/01/23 05:49:06;;;;;;;;;;;22.40;31.90;;;;;;5142598;27;20274;-79
2023/01/23 05:51:32;;;;;;;;;;;22.40;31.90;;;;;;5158139;27;19929;-76
2023/01/23 05:54:01;;;;;;;;;;;22.40;31.90;;;;;;5139408;27;20308;-76
2023/01/23 05:56:27;;;;;;;;;;;22.40;31.90;;;;;;5139258;27;19923;-78
2023/01/23 05:58:52;;;;;;;;;;;22.40;31.90;;;;;;5142267;27;19992;-78
2023/01/23 06:01:22;;;;;;;;;;;22.40;31.90;;;;;;5152716;27;19919;-77
2023/01/23 06:03:51;;;;;;;;;;;22.40;32.00;;;;;;5145225;27;19919;-78
2023/01/23 06:06:16;;;;;;;;;;;22.30;31.90;;;;;;5138896;27;19918;-78
2023/01/23 06:08:42;;;;;;;;;;;22.40;32.00;;;;;;5143036;27;20051;-78
2023/01/23 06:11:07;;;;;;;;;;;22.40;32.00;;;;;;5137142;27;20394;-77
2023/01/23 06:13:33;;;;;;;;;;;22.40;32.00;;;;;;5138423;27;20293;-77
2023/01/23 06:15:58;;;;;;;;;;;22.40;32.00;;;;;;5140586;27;20045;-78
2023/01/23 06:18:24;;;;;;;;;;;22.40;32.00;;;;;;5139732;27;19967;-76
2023/01/23 06:20:55;;;;;;;;;;;22.40;32.00;;;;;;5144857;27;20346;-76
2023/01/23 06:23:24;;;;;;;;;;;22.40;31.90;;;;;;5139738;27;19919;-78
2023/01/23 06:25:49;;;;;;;;;;;22.30;32.00;;;;;;5141073;27;19942;-77
2023/01/23 06:28:15;;;;;;;;;;;22.30;32.00;;;;;;5160216;27;20379;-77
2023/01/23 06:30:40;;;;;;;;;;;22.30;31.90;;;;;;5142514;27;19923;-75
2023/01/23 06:33:06;;;;;;;;;;;22.30;32.20;;;;;;5142731;27;19922;-77
2023/01/23 06:35:31;;;;;;;;;;;22.30;32.50;;;;;;5130152;27;19923;-76
2023/01/23 06:37:57;;;;;;;;;;;22.10;32.40;;;;;;5137577;27;19923;-69
2023/01/23 06:40:22;;;;;;;;;;;22.00;32.50;;;;;;5132310;27;19923;-77
2023/01/23 06:42:49;;;;;;;;;;;21.80;32.60;;;;;;5136427;27;19919;-78
2023/01/23 06:45:15;;;;;;;;;;;21.70;32.80;;;;;;5136972;27;20285;-77
2023/01/23 06:47:40;;;;;;;;;;;21.70;33.30;;;;;;5151856;27;19926;-79
2023/01/23 06:50:06;;;;;;;;;;;21.70;33.20;;;;;;5135228;27;19934;-79
2023/01/23 06:52:32;;;;;;;;;;;21.80;33.30;;;;;;5138549;27;19927;-78
2023/01/23 06:54:58;;;;;;;;;;;22.00;33.30;;;;;;5134167;27;20381;-78
2023/01/23 06:57:23;;;;;;;;;;;22.00;33.20;;;;;;5152473;27;19923;-77
2023/01/23 06:59:49;;;;;;;;;;;22.20;33.00;;;;;;5137457;27;20017;-78
2023/01/23 07:02:14;;;;;;;;;;;22.30;32.90;;;;;;5136857;27;20294;-79
2023/01/23 07:04:40;;;;;;;;;;;22.50;32.70;;;;;;5102882;27;20025;-79
2023/01/23 07:07:05;;;;;;;;;;;22.60;32.60;;;;;;5090012;27;20042;-75
2023/01/23 07:09:31;;;;;;;;;;;22.60;32.50;;;;;;5131238;27;20002;-75
2023/01/23 07:11:56;;;;;;;;;;;22.70;32.60;;;;;;5123820;27;19927;-76
2023/01/23 07:14:26;;;;;;;;;;;22.80;32.30;;;;;;5132078;27;19934;-76
2023/01/23 07:16:52;;;;;;;;;;;22.80;32.90;;;;;;5119607;27;19928;-76
2023/01/23 07:19:18;;;;;;;;;;;22.80;32.20;;;;;;5121584;27;19962;-76
2023/01/23 07:21:43;;;;;;;;;;;22.80;32.30;;;;;;5120837;27;19977;-76
2023/01/23 07:24:09;;;;;;;;;;;22.80;32.50;;;;;;5126111;27;19926;-77
2023/01/23 07:26:35;;;;;;;;;;;22.90;32.60;;;;;;5121677;27;19927;-78
2023/01/23 07:29:00;;;;;;;;;;;22.90;32.80;;;;;;5131476;27;19930;-79
2023/01/23 07:31:29;;;;;;;;;;;23.00;33.10;;;;;;5110826;27;19923;-70
2023/01/23 07:33:54;;;;;;;;;;;23.20;32.50;;;;;;5130258;27;20315;-69
2023/01/23 07:36:20;;;;;;;;;;;23.20;32.30;;;;;;5115309;27;19941;-73
2023/01/23 07:38:46;;;;;;;;;;;23.00;32.40;;;;;;5117335;27;19937;-71
2023/01/23 07:41:11;;;;;;;;;;;22.90;32.90;;;;;;5109586;27;19923;-75
2023/01/23 07:43:37;;;;;;;;;;;22.90;33.30;;;;;;5114997;27;19923;-75
2023/01/23 07:46:02;;;;;;;;;;;22.90;33.30;;;;;;5112662;27;20423;-73
2023/01/23 07:48:28;;;;;;;;;;;22.90;33.40;;;;;;5093840;27;19980;-73
2023/01/23 07:50:54;;;;;;;;;;;22.80;33.00;;;;;;5121675;27;20339;-72
2023/01/23 07:53:19;;;;;;;;;;;22.60;33.20;;;;;;5129705;27;19926;-72
2023/01/23 07:55:45;;;;;;;;;;;22.40;33.90;;;;;;5123338;27;19928;-75
2023/01/23 07:58:10;;;;;;;;;;;22.20;34.30;;;;;;5119076;27;19927;-75
2023/01/23 08:00:36;;;;;;;;;;;22.20;34.50;;;;;;5105877;27;20275;-75
2023/01/23 08:03:02;;;;;;;;;;;22.20;34.60;;;;;;5121753;27;19930;-77
2023/01/23 08:05:27;;;;;;;;;;;22.30;34.60;;;;;;5104131;27;19935;-73
2023/01/23 08:07:53;;;;;;;;;;;22.40;34.70;;;;;;5099644;27;19934;-74
2023/01/23 08:10:18;;;;;;;;;;;22.40;34.80;;;;;;5096110;27;19934;-70
2023/01/23 08:12:44;;;;;;;;;;;22.40;34.60;;;;;;5101745;27;19992;-70
2023/01/23 08:15:10;;;;;;;;;;;22.40;34.90;;;;;;5102061;27;20393;-72
2023/01/23 08:17:35;;;;;;;;;;;22.50;35.00;;;;;;5113189;27;20316;-72
2023/01/23 08:20:01;;;;;;;;;;;22.50;34.80;;;;;;5109600;27;19927;-70
2023/01/23 08:22:26;;;;;;;;;;;22.60;34.90;;;;;;5100193;27;19971;-72
2023/01/23 08:24:52;;;;;;;;;;;22.60;34.70;;;;;;5117860;27;20103;-70
2023/01/23 08:27:18;;;;;;;;;;;22.50;35.40;;;;;;5097973;27;20812;-73
2023/01/23 08:29:43;;;;;;;;;;;22.60;34.50;;;;;;5114792;27;19923;-68
2023/01/23 08:32:09;;;;;;;;;;;22.60;34.50;;;;;;5108350;27;19972;-80
2023/01/23 08:34:34;;;;;;;;;;;22.50;34.70;;;;;;5120833;27;19927;-72
2023/01/23 08:37:00;;;;;;;;;;;22.20;35.00;;;;;;5127503;27;19933;-69
2023/01/23 08:39:25;;;;;;;;;;;22.10;35.30;;;;;;5134018;27;19980;-68
2023/01/23 08:41:51;;;;;;;;;;;22.20;35.40;;;;;;5129187;27;20113;-77
2023/01/23 08:44:16;;;;;;;;;;;22.30;35.20;;;;;;5125557;27;20008;-72
2023/01/23 08:46:43;;;;;;;;;;;22.30;35.10;;;;;;5141360;27;19930;-74
2023/01/23 08:49:09;;;;;;;;;;;22.40;35.20;;;;;;5127533;27;19934;-74
2023/01/23 08:51:34;;;;;;;;;;;22.50;35.10;;;;;;5124129;27;20387;-73
2023/01/23 08:54:00;;;;;;;;;;;22.50;34.90;;;;;;5123444;27;20041;-72
2023/01/23 08:56:25;;;;;;;;;;;22.50;35.00;;;;;;5123255;27;19927;-70
2023/01/23 08:58:51;;;;;;;;;;;22.50;35.00;;;;;;5123111;27;20025;-71
2023/01/23 09:01:18;;;;;;;;;;;22.50;35.00;;;;;;5142584;27;19991;-75
2023/01/23 09:03:44;;;;;;;;;;;22.60;35.00;;;;;;5144609;27;20006;-70
2023/01/23 09:06:11;;;;;;;;;;;22.60;34.90;;;;;;5119598;27;20018;-69
2023/01/23 09:08:37;;;;;;;;;;;22.60;35.20;;;;;;5122485;27;19919;-71
2023/01/23 09:11:03;;;;;;;;;;;22.50;35.20;;;;;;5123707;27;20275;-72
2023/01/23 09:13:29;;;;;;;;;;;22.40;35.20;;;;;;5127155;27;19927;-76
2023/01/23 09:15:58;;;;;;;;;;;22.30;35.60;;;;;;5128793;27;20373;-72
2023/01/23 09:18:24;;;;;;;;;;;22.30;35.80;;;;;;5121595;27;19927;-70
2023/01/23 09:20:50;;;;;;;;;;;22.30;35.90;;;;;;5123385;27;19923;-74
2023/01/23 09:23:16;;;;;;;;;;;22.20;35.80;;;;;;5124329;27;19919;-72
2023/01/23 09:25:41;;;;;;;;;;;22.30;36.00;;;;;;5120386;27;20292;-72
2023/01/23 09:28:07;;;;;;;;;;;22.40;36.00;;;;;;5122068;27;19927;-72
2023/01/23 09:30:33;;;;;;;;;;;22.50;35.90;;;;;;5142837;27;19930;-69
2023/01/23 09:32:58;;;;;;;;;;;22.50;36.00;;;;;;5138547;27;20396;-68
2023/01/23 09:35:24;;;;;;;;;;;22.40;35.90;;;;;;5136157;27;19924;-69
2023/01/23 09:38:06;;;;;;;;;;;22.50;36.00;;;;;;5120928;27;19919;-72
2023/01/23 09:40:34;;;;;;;;;;;22.50;36.20;;;;;;5102663;27;19924;-71
2023/01/23 09:43:07;;;;;;;;;;;22.50;36.00;;;;;;5104805;27;19943;-72
2023/01/23 09:45:32;;;;;;;;;;;22.50;35.80;;;;;;5102031;27;19924;-71
2023/01/23 09:48:06;;;;;;;;;;;22.50;35.70;;;;;;5118564;27;19923;-72
2023/01/23 09:50:35;;;;;;;;;;;22.60;35.70;;;;;;5114534;27;19930;-69
2023/01/23 09:53:06;;;;;;;;;;;22.40;35.50;;;;;;5103428;27;19924;-68
2023/01/23 09:55:52;;;;;;;;;;;22.40;35.50;;;;;;5099063;27;19930;-73
2023/01/23 09:58:21;;;;;;;;;;;22.40;35.50;;;;;;5113631;27;19927;-71
2023/01/23 10:00:47;;;;;;;;;;;22.40;35.40;;;;;;5114903;27;19954;-75
2023/01/23 10:03:14;;;;;;;;;;;22.30;35.50;;;;;;5114232;27;20546;-74
2023/01/23 10:08:40;;;;;;;;;;;22.10;35.70;;;;;;5078522;27;19920;-67
2023/01/23 10:11:25;;;;;;;;;;;22.20;35.70;;;;;;5077561;28;20177;-72
2023/01/23 10:16:39;;;;;;;;;;;22.20;35.50;;;;;;5107732;27;1863162;-72
2023/01/23 10:19:24;;;;;;;;;;;22.20;35.50;;;;;;5144508;27;19965;-72
2023/01/23 10:24:48;;;;;;;;;;;22.20;35.50;;;;;;5095194;27;19972;-72
2023/01/23 10:32:44;;;;;;;;;;;22.10;35.40;;;;;;5066405;27;20014;-68
2023/01/23 10:35:12;;;;;;;;;;;22.30;35.80;;;;;;5065627;28;19935;-71
2023/01/23 10:37:43;;;;;;;;;;;22.20;35.80;;;;;;5085536;28;20007;-69
2023/01/23 10:40:11;;;;;;;;;;;22.30;36.00;;;;;;5045101;28;19932;-67
2023/01/23 10:42:37;;;;;;;;;;;22.30;35.90;;;;;;5042427;28;19932;-73
2023/01/23 10:45:03;;;;;;;;;;;22.50;36.00;;;;;;5070387;28;20628;-69
2023/01/23 10:50:08;;;;;;;;;;;22.50;36.10;;;;;;5091235;27;1882353;-72
2023/01/23 10:52:36;;;;;;;;;;;22.50;36.00;;;;;;5123535;27;20446;-71
2023/01/23 10:55:05;;;;;;;;;;;22.50;36.00;;;;;;5128176;27;20511;-74
2023/01/23 10:57:36;;;;;;;;;;;22.50;36.00;;;;;;5128882;27;19951;-72
2023/01/23 11:02:43;;;;;;;;;;;22.40;36.20;;;;;;5077082;27;20091;-68
2023/01/23 11:05:28;;;;;;;;;;;22.40;36.10;;;;;;5078662;28;20026;-68
2023/01/23 11:07:54;;;;;;;;;;;22.50;36.30;;;;;;5107162;27;19928;-72
2023/01/23 11:10:20;;;;;;;;;;;22.60;36.10;;;;;;5078607;28;19927;-72
2023/01/23 11:12:48;;;;;;;;;;;22.50;36.10;;;;;;5106972;27;19924;-72
2023/01/23 11:15:31;;;;;;;;;;;22.40;36.30;;;;;;5080669;28;19923;-72
2023/01/23 11:17:58;;;;;;;;;;;22.50;36.50;;;;;;5084281;28;19972;-71
2023/01/23 11:20:29;;;;;;;;;;;22.50;36.40;;;;;;5080067;28;19927;-74
2023/01/23 11:23:14;;;;;;;;;;;22.50;36.20;;;;;;5082776;28;20026;-72
2023/01/23 11:25:41;;;;;;;;;;;22.50;36.40;;;;;;5088371;28;20203;-69
2023/01/23 11:28:28;;;;;;;;;;;22.40;36.10;;;;;;5086079;28;19998;-70
2023/01/23 11:36:58;;;;;;;;;;;22.20;36.30;;;;;;5083819;27;19946;-69
2023/01/23 11:39:44;;;;;;;;;;;22.10;36.00;;;;;;5054453;28;20438;-69
2023/01/23 11:42:11;;;;;;;;;;;22.10;35.90;;;;;;5066303;28;20306;-70
2023/01/23 11:44:37;;;;;;;;;;;22.20;35.90;;;;;;5058690;28;19928;-72
2023/01/23 11:47:23;;;;;;;;;;;22.20;35.90;;;;;;5070205;28;20263;-70
2023/01/23 11:50:09;;;;;;;;;;;22.30;36.10;;;;;;5053925;28;20003;-72
2023/01/23 12:03:55;;;;;;;;;;;22.70;36.70;;;;;;5060665;28;19954;-73
2023/01/23 12:06:41;;;;;;;;;;;22.80;36.70;;;;;;5058892;28;19932;-75
2023/01/23 12:09:15;;;;;;;;;;;22.80;36.90;;;;;;5050315;28;19936;-74
2023/01/23 12:14:39;;;;;;;;;;;22.70;36.20;;;;;;5045766;27;20029;-75
2023/01/23 12:17:24;;;;;;;;;;;22.80;36.60;;;;;;5044794;28;19924;-78
2023/01/23 12:22:54;;;;;;;;;;;22.40;36.90;;;;;;5101237;27;1864898;-74
2023/01/23 12:25:25;;;;;;;;;;;22.40;37.00;;;;;;5138372;27;20322;-73
2023/01/23 12:27:56;;;;;;;;;;;22.40;37.00;;;;;;5136073;27;20354;-72
2023/01/23 12:33:20;;;;;;;;;;;22.40;37.30;;;;;;5104682;27;19924;-70
2023/01/23 12:44:08;;;;;;;;;;;22.50;37.20;;;;;;5075880;27;19931;-67
2023/01/23 12:46:38;;;;;;;;;;;22.40;36.70;;;;;;5092581;28;19960;-69
2023/01/23 12:49:13;;;;;;;;;;;22.30;36.80;;;;;;5055428;28;20019;-69
2023/01/23 12:51:44;;;;;;;;;;;22.40;37.00;;;;;;5087172;28;19928;-70
2023/01/23 12:54:15;;;;;;;;;;;22.50;36.90;;;;;;5091939;28;19925;-69
2023/01/23 12:56:41;;;;;;;;;;;22.50;36.60;;;;;;5085495;28;20015;-69
2023/01/23 12:59:13;;;;;;;;;;;22.50;36.60;;;;;;5062198;28;19925;-76
2023/01/23 13:01:49;;;;;;;;;;;22.50;36.60;;;;;;5056328;28;19932;-66
2023/01/23 13:07:14;;;;;;;;;;;22.60;36.20;;;;;;5082085;27;1922535;-67
2023/01/23 13:12:28;;;;;;;;;;;22.60;36.00;;;;;;5048888;28;19920;-67
2023/01/23 13:15:14;;;;;;;;;;;22.70;35.80;;;;;;5030708;28;20060;-67
2023/01/23 13:23:21;;;;;;;;;;;22.70;36.10;;;;;;5091878;27;20290;-67
2023/01/23 13:25:46;;;;;;;;;;;22.70;36.30;;;;;;5085498;28;19943;-64
2023/01/23 13:28:32;;;;;;;;;;;22.90;36.30;;;;;;5083525;28;19924;-66
2023/01/23 13:30:59;;;;;;;;;;;22.90;36.20;;;;;;5088223;28;19924;-66
2023/01/23 13:36:13;;;;;;;;;;;23.10;36.10;;;;;;5106945;27;19920;-65
2023/01/23 13:38:39;;;;;;;;;;;23.00;36.10;;;;;;5122714;27;20151;-67
2023/01/23 13:51:47;;;;;;;;;;;22.50;36.50;;;;;;5063312;27;19931;-71
2023/01/23 13:57:03;;;;;;;;;;;22.50;36.70;;;;;;5059448;28;19928;-73
2023/01/23 13:59:33;;;;;;;;;;;22.60;36.70;;;;;;5057689;28;19925;-69
2023/01/23 14:05:17;;;;;;;;;;;22.60;37.10;;;;;;5067965;28;19924;-72
2023/01/23 14:07:45;;;;;;;;;;;22.80;36.90;;;;;;5071045;28;20350;-72
2023/01/23 14:10:14;;;;;;;;;;;22.90;36.00;;;;;;5110979;27;19929;-69
2023/01/23 14:12:44;;;;;;;;;;;23.10;36.40;;;;;;5080019;28;19925;-74
2023/01/23 14:18:15;;;;;;;;;;;23.50;34.90;;;;;;5078401;28;20007;-71
2023/01/23 14:20:41;;;;;;;;;;;23.60;33.90;;;;;;5082373;28;19927;-71
2023/01/23 14:23:26;;;;;;;;;;;23.70;33.70;;;;;;5082314;28;19920;-71
2023/01/23 14:25:52;;;;;;;;;;;23.70;33.70;;;;;;5081212;28;19942;-67
2023/01/23 14:28:18;;;;;;;;;;;23.70;33.40;;;;;;5087436;28;20501;-72
2023/01/23 14:31:03;;;;;;;;;;;23.70;33.40;;;;;;5083453;28;20567;-69
2023/01/23 14:33:38;;;;;;;;;;;23.70;33.20;;;;;;5082325;28;19929;-68
2023/01/23 14:36:04;;;;;;;;;;;23.70;33.10;;;;;;5114533;28;19924;-70
2023/01/23 14:38:32;;;;;;;;;;;23.80;33.50;;;;;;5081189;28;19985;-67
2023/01/23 14:40:57;;;;;;;;;;;23.90;33.60;;;;;;5080750;28;19924;-71
2023/01/23 14:43:25;;;;;;;;;;;24.20;33.50;;;;;;5117281;28;19927;-71
2023/01/23 14:45:57;;;;;;;;;;;24.40;33.30;;;;;;5082781;28;20452;-68
2023/01/23 14:48:23;;;;;;;;;;;24.60;33.00;;;;;;5084787;28;20503;-72
2023/01/23 14:50:48;;;;;;;;;;;24.80;32.70;;;;;;5080559;28;19977;-73
2023/01/23 14:53:15;;;;;;;;;;;24.90;32.60;;;;;;5083444;28;19974;-74
2023/01/23 14:55:41;;;;;;;;;;;25.00;32.50;;;;;;5085064;28;19921;-71
2023/01/23 14:58:14;;;;;;;;;;;25.00;32.50;;;;;;5083075;28;19927;-73
2023/01/23 15:00:40;;;;;;;;;;;24.90;30.90;;;;;;5093156;28;19920;-72
2023/01/23 15:03:07;;;;;;;;;;;24.50;31.30;;;;;;5070917;28;20543;-70
2023/01/23 15:05:38;;;;;;;;;;;24.30;31.70;;;;;;5071281;28;19932;-72
2023/01/23 15:10:46;;;;;;;;;;;24.00;32.50;;;;;;5111816;27;1864751;-68
2023/01/23 15:15:58;;;;;;;;;;;23.90;32.80;;;;;;5087194;28;19919;-72
2023/01/23 15:18:26;;;;;;;;;;;23.90;32.90;;;;;;5085393;28;19927;-73
2023/01/23 15:20:57;;;;;;;;;;;23.90;33.00;;;;;;5085090;28;19924;-73
2023/01/23 15:23:35;;;;;;;;;;;23.80;33.20;;;;;;5084410;28;19920;-72
2023/01/23 15:26:21;;;;;;;;;;;23.80;33.30;;;;;;5086712;28;19921;-71
2023/01/23 15:28:48;;;;;;;;;;;23.60;32.60;;;;;;5087598;28;19920;-72
2023/01/23 15:31:21;;;;;;;;;;;23.20;32.80;;;;;;5085413;28;19928;-66
2023/01/23 15:33:47;;;;;;;;;;;22.90;33.00;;;;;;5081652;28;19924;-66
2023/01/23 15:36:29;;;;;;;;;;;22.90;33.10;;;;;;5082840;28;19927;-66
2023/01/23 15:38:56;;;;;;;;;;;22.70;33.10;;;;;;5085725;28;20391;-67
2023/01/23 15:41:36;;;;;;;;;;;22.60;33.40;;;;;;5087123;28;19920;-66
2023/01/23 15:44:02;;;;;;;;;;;22.50;33.60;;;;;;5087968;28;19921;-66
2023/01/23 15:46:27;;;;;;;;;;;22.30;33.70;;;;;;5086339;28;19928;-66
2023/01/23 15:48:53;;;;;;;;;;;22.20;33.90;;;;;;5086655;28;19925;-66
2023/01/23 15:51:21;;;;;;;;;;;22.10;34.10;;;;;;5085926;28;19920;-66
2023/01/23 15:53:47;;;;;;;;;;;21.90;34.20;;;;;;5084970;28;19925;-66
2023/01/23 15:56:20;;;;;;;;;;;21.80;34.40;;;;;;5086910;28;19921;-66
2023/01/23 15:58:46;;;;;;;;;;;21.60;34.70;;;;;;5087342;28;19936;-66
2023/01/23 16:01:11;;;;;;;;;;;21.50;34.90;;;;;;5086518;28;19921;-72
2023/01/23 16:03:37;;;;;;;;;;;21.40;35.20;;;;;;5085324;28;20375;-72
2023/01/23 16:06:03;;;;;;;;;;;21.30;35.30;;;;;;5086253;28;20053;-72